createdAt,value
2023-05-10T00:01:23.217Z,12.22
2023-05-10T00:03:50.655Z,12.24
2023-05-10T00:06:18.110Z,12.24
2023-05-10T00:08:46.213Z,12.28
2023-05-10T00:11:13.465Z,12.10
2023-05-10T00:13:42.378Z,12.01
2023-05-10T00:16:10.722Z,12.12
2023-05-10T00:18:39.762Z,12.17
2023-05-10T00:21:07.061Z,12.10
2023-05-10T00:23:34.463Z,12.11
2023-05-10T00:26:01.713Z,12.20
2023-05-10T00:28:29.031Z,12.41
2023-05-10T00:30:57.707Z,12.22
2023-05-10T00:33:24.924Z,12.08
2023-05-10T00:35:52.218Z,11.95
2023-05-10T00:38:19.485Z,11.90
2023-05-10T00:40:46.726Z,11.92
2023-05-10T00:43:15.002Z,11.77
2023-05-10T00:45:42.352Z,11.87
2023-05-10T00:48:11.056Z,11.77
2023-05-10T00:50:38.317Z,11.79
2023-05-10T00:53:05.661Z,11.70
2023-05-10T00:55:33.249Z,11.55
2023-05-10T00:58:00.794Z,11.45
2023-05-10T01:00:28.983Z,11.56
2023-05-10T01:02:56.320Z,11.47
2023-05-10T01:05:25.712Z,11.36
2023-05-10T01:07:53.021Z,11.24
2023-05-10T01:10:21.714Z,11.27
2023-05-10T01:12:49.241Z,11.34
2023-05-10T01:15:20.390Z,11.23
2023-05-10T01:17:49.144Z,11.12
2023-05-10T01:20:16.926Z,11.00
2023-05-10T01:23:01.725Z,10.98
2023-05-10T01:25:45.279Z,11.17
2023-05-10T01:28:41.019Z,11.26
2023-05-10T01:31:23.518Z,11.22
2023-05-10T01:33:56.654Z,11.27
2023-05-10T01:36:31.874Z,11.11
2023-05-10T01:39:03.210Z,11.24
2023-05-10T01:41:40.842Z,11.00
2023-05-10T01:44:17.624Z,11.17
2023-05-10T01:46:49.798Z,11.12
2023-05-10T01:49:24.296Z,11.13
2023-05-10T01:51:54.489Z,11.04
2023-05-10T01:54:24.577Z,11.15
2023-05-10T01:57:02.550Z,11.10
2023-05-10T01:59:34.808Z,11.04
2023-05-10T02:02:03.488Z,11.04
2023-05-10T02:04:35.973Z,10.92
2023-05-10T02:07:03.486Z,10.95
2023-05-10T02:09:32.956Z,10.91
2023-05-10T02:12:02.432Z,10.88
2023-05-10T02:14:33.220Z,10.82
2023-05-10T02:17:02.109Z,10.74
2023-05-10T02:19:31.051Z,10.61
2023-05-10T02:22:01.016Z,10.78
2023-05-10T02:24:31.486Z,10.78
2023-05-10T02:27:00.222Z,10.87
2023-05-10T02:29:29.350Z,10.65
2023-05-10T02:31:58.523Z,10.77
2023-05-10T02:34:27.606Z,10.63
2023-05-10T02:36:55.785Z,10.60
2023-05-10T02:39:25.647Z,10.49
2023-05-10T02:41:54.458Z,10.66
2023-05-10T02:44:23.558Z,10.75
2023-05-10T02:46:50.872Z,10.67
2023-05-10T02:49:19.226Z,10.64
2023-05-10T02:51:52.376Z,10.70
2023-05-10T02:54:21.587Z,10.56
2023-05-10T02:56:57.254Z,10.52
2023-05-10T02:59:24.796Z,10.55
2023-05-10T03:01:52.188Z,10.59
2023-05-10T03:04:19.708Z,10.41
2023-05-10T03:06:47.198Z,10.34
2023-05-10T03:09:15.764Z,10.31
2023-05-10T03:11:55.000Z,10.53
2023-05-10T03:14:41.076Z,10.29
2023-05-10T03:17:12.758Z,10.17
2023-05-10T03:19:48.575Z,10.25
2023-05-10T03:22:22.696Z,10.32
2023-05-10T03:24:54.616Z,10.18
2023-05-10T03:27:24.488Z,10.30
2023-05-10T03:29:53.500Z,10.38
2023-05-10T03:32:20.714Z,10.39
2023-05-10T03:34:47.904Z,10.37
2023-05-10T03:37:15.169Z,10.35
2023-05-10T03:39:42.774Z,10.15
2023-05-10T03:42:10.094Z,10.24
2023-05-10T03:44:39.090Z,10.33
2023-05-10T03:47:06.565Z,10.42
2023-05-10T03:49:33.914Z,10.36
2023-05-10T03:52:01.107Z,10.32
2023-05-10T03:54:28.346Z,10.39
2023-05-10T03:56:55.580Z,10.40
2023-05-10T03:59:22.733Z,10.50
2023-05-10T04:01:51.432Z,10.45
2023-05-10T04:04:18.749Z,10.31
2023-05-10T04:06:46.015Z,10.28
2023-05-10T04:09:13.431Z,10.42
2023-05-10T04:11:40.694Z,10.38
2023-05-10T04:14:07.863Z,10.34
2023-05-10T04:16:35.155Z,10.48
2023-05-10T04:19:03.785Z,10.52
2023-05-10T04:21:31.004Z,10.56
2023-05-10T04:23:59.556Z,10.48
2023-05-10T04:26:26.804Z,10.72
2023-05-10T04:28:56.527Z,10.62
2023-05-10T04:31:23.843Z,10.63
2023-05-10T04:33:51.590Z,10.90
2023-05-10T04:36:20.423Z,10.96
2023-05-10T04:38:48.701Z,10.97
2023-05-10T04:41:15.990Z,11.23
2023-05-10T04:43:43.290Z,11.32
2023-05-10T04:46:10.552Z,11.42
2023-05-10T04:48:37.751Z,11.65
2023-05-10T04:51:05.107Z,11.88
2023-05-10T04:53:33.835Z,12.11
2023-05-10T04:56:01.079Z,11.92
2023-05-10T04:58:28.223Z,12.12
2023-05-10T05:00:55.378Z,12.28
2023-05-10T05:03:22.685Z,12.30
2023-05-10T05:05:49.974Z,12.56
2023-05-10T05:08:17.182Z,12.68
2023-05-10T05:10:45.954Z,12.65
2023-05-10T05:13:13.738Z,12.76
2023-05-10T05:15:40.977Z,13.05
2023-05-10T05:18:08.322Z,13.31
2023-05-10T05:20:35.934Z,13.12
2023-05-10T05:23:03.197Z,13.07
2023-05-10T05:25:30.496Z,12.71
2023-05-10T05:27:59.158Z,12.84
2023-05-10T05:30:27.480Z,13.11
2023-05-10T05:32:54.808Z,13.28
2023-05-10T05:35:22.038Z,13.19
2023-05-10T05:37:49.304Z,13.12
2023-05-10T05:40:17.992Z,13.14
2023-05-10T05:42:45.292Z,13.10
2023-05-10T05:45:14.058Z,13.05
2023-05-10T05:47:42.090Z,13.17
2023-05-10T05:50:10.833Z,13.24
2023-05-10T05:52:38.113Z,13.50
2023-05-10T05:55:05.896Z,13.62
2023-05-10T05:57:33.085Z,13.64
2023-05-10T06:00:00.292Z,13.79
2023-05-10T06:02:28.978Z,13.76
2023-05-10T06:04:56.183Z,13.87
2023-05-10T06:07:23.372Z,14.04
2023-05-10T06:09:50.889Z,14.01
2023-05-10T06:12:18.166Z,14.19
2023-05-10T06:14:45.624Z,14.34
2023-05-10T06:17:13.225Z,14.46
2023-05-10T06:19:41.840Z,14.77
2023-05-10T06:22:10.118Z,14.67
2023-05-10T06:24:37.693Z,14.51
2023-05-10T06:27:04.890Z,14.72
2023-05-10T06:29:33.652Z,15.04
2023-05-10T06:32:00.909Z,15.21
2023-05-10T06:34:28.141Z,15.43
2023-05-10T06:36:56.730Z,15.63
2023-05-10T06:39:25.246Z,15.78
2023-05-10T06:41:53.700Z,15.92
2023-05-10T06:44:20.958Z,16.03
2023-05-10T06:46:48.223Z,16.37
2023-05-10T06:49:15.570Z,16.13
2023-05-10T06:51:42.990Z,16.36
2023-05-10T06:54:11.584Z,16.51
2023-05-10T06:56:39.064Z,16.23
2023-05-10T06:59:06.371Z,16.30
2023-05-10T07:01:33.655Z,16.34
2023-05-10T07:04:00.935Z,16.45
2023-05-10T07:06:33.537Z,16.06
2023-05-10T07:09:01.436Z,16.19
2023-05-10T07:11:30.100Z,16.47
2023-05-10T07:13:57.332Z,16.58
2023-05-10T07:16:24.735Z,16.24
2023-05-10T07:18:51.983Z,16.26
2023-05-10T07:21:19.281Z,16.41
2023-05-10T07:23:46.700Z,16.48
2023-05-10T07:26:13.954Z,16.49
2023-05-10T07:28:43.049Z,16.59
2023-05-10T07:31:10.343Z,16.37
2023-05-10T07:33:37.616Z,16.38
2023-05-10T07:36:05.021Z,16.52
2023-05-10T07:38:32.901Z,16.73
2023-05-10T07:41:00.127Z,16.85
2023-05-10T07:43:27.300Z,16.98
2023-05-10T07:45:56.441Z,17.03
2023-05-10T07:48:23.694Z,16.88
2023-05-10T07:50:50.882Z,16.57
2023-05-10T07:53:18.273Z,16.60
2023-05-10T07:55:51.344Z,16.84
2023-05-10T07:58:18.688Z,16.78
2023-05-10T08:00:45.938Z,16.66
2023-05-10T08:03:14.957Z,17.07
2023-05-10T08:05:42.781Z,17.17
2023-05-10T08:08:09.776Z,17.29
2023-05-10T08:10:36.887Z,17.50
2023-05-10T08:13:04.112Z,17.64
2023-05-10T08:15:31.335Z,17.85
2023-05-10T08:17:58.647Z,18.00
2023-05-10T08:20:27.477Z,18.18
2023-05-10T08:22:54.778Z,18.43
2023-05-10T08:25:22.022Z,18.43
2023-05-10T08:27:49.552Z,18.49
2023-05-10T08:30:16.796Z,18.80
2023-05-10T08:32:44.018Z,18.75
2023-05-10T08:35:11.494Z,18.54
2023-05-10T08:37:40.184Z,18.83
2023-05-10T08:40:09.527Z,18.62
2023-05-10T08:42:39.356Z,19.25
2023-05-10T08:45:08.689Z,19.62
2023-05-10T08:47:38.465Z,19.58
2023-05-10T08:50:07.979Z,19.85
2023-05-10T08:52:39.155Z,20.48
2023-05-10T08:55:08.459Z,20.88
2023-05-10T08:57:36.871Z,21.26
2023-05-10T09:00:05.132Z,22.18
2023-05-10T09:02:32.487Z,23.38
2023-05-10T09:05:00.022Z,24.22
2023-05-10T09:07:28.330Z,25.05
2023-05-10T09:09:55.776Z,25.76
2023-05-10T09:12:24.380Z,26.01
2023-05-10T09:14:53.025Z,25.77
2023-05-10T09:17:20.542Z,25.24
2023-05-10T09:19:47.774Z,24.91
2023-05-10T09:22:15.055Z,24.31
2023-05-10T09:24:44.357Z,24.69
2023-05-10T09:27:11.588Z,23.20
2023-05-10T09:29:43.677Z,23.40
2023-05-10T09:32:13.810Z,24.02
2023-05-10T09:34:43.529Z,24.40
2023-05-10T09:37:10.840Z,23.63
2023-05-10T09:39:38.469Z,22.15
2023-05-10T09:42:07.555Z,22.81
2023-05-10T09:44:38.089Z,23.79
2023-05-10T09:47:07.138Z,23.62
2023-05-10T09:49:35.183Z,23.41
2023-05-10T09:52:04.399Z,23.53
2023-05-10T09:54:32.434Z,23.97
2023-05-10T09:57:01.058Z,24.38
2023-05-10T09:59:29.393Z,24.25
2023-05-10T10:02:00.817Z,24.37
2023-05-10T10:04:29.683Z,24.39
2023-05-10T10:07:01.600Z,23.85
2023-05-10T10:09:30.200Z,24.40
2023-05-10T10:11:57.650Z,25.18
2023-05-10T10:14:25.399Z,25.83
2023-05-10T10:17:06.553Z,26.04
2023-05-10T10:19:37.278Z,25.92
2023-05-10T10:22:07.639Z,26.29
2023-05-10T10:24:35.002Z,26.55
2023-05-10T10:27:09.890Z,26.18
2023-05-10T10:29:45.383Z,26.46
2023-05-10T10:32:23.336Z,26.12
2023-05-10T10:34:52.725Z,26.42
2023-05-10T10:37:20.254Z,26.24
2023-05-10T10:39:49.436Z,26.07
2023-05-10T10:42:44.891Z,25.06
2023-05-10T10:45:13.442Z,26.03
2023-05-10T10:47:40.755Z,25.85
2023-05-10T10:50:11.497Z,26.49
2023-05-10T10:52:39.345Z,26.41
2023-05-10T10:55:08.185Z,26.96
2023-05-10T10:57:46.899Z,26.69
2023-05-10T11:00:38.929Z,26.45
2023-05-10T11:03:08.326Z,26.25
2023-05-10T11:05:39.854Z,25.47
2023-05-10T11:08:13.107Z,27.00
2023-05-10T11:10:41.477Z,27.40
2023-05-10T11:13:10.072Z,27.28
2023-05-10T11:15:38.971Z,27.35
2023-05-10T11:18:19.347Z,27.45
2023-05-10T11:20:53.223Z,27.46
2023-05-10T11:23:20.443Z,27.19
2023-05-10T11:25:48.466Z,25.62
2023-05-10T11:28:20.852Z,24.48
2023-05-10T11:30:50.577Z,25.04
2023-05-10T11:33:19.164Z,25.78
2023-05-10T11:35:48.138Z,26.15
2023-05-10T11:38:16.903Z,26.50
2023-05-10T11:40:44.487Z,26.48
2023-05-10T11:43:12.056Z,26.69
2023-05-10T11:45:42.154Z,26.39
2023-05-10T11:48:09.476Z,25.77
2023-05-10T11:50:36.517Z,26.38
2023-05-10T11:53:03.651Z,26.96
2023-05-10T11:55:34.885Z,26.68
2023-05-10T11:58:02.680Z,27.69
2023-05-10T12:00:31.997Z,26.50
2023-05-10T12:02:59.583Z,25.47
2023-05-10T12:05:27.430Z,26.88
2023-05-10T12:08:11.865Z,27.33
2023-05-10T12:10:40.948Z,27.75
2023-05-10T12:13:13.453Z,28.12
2023-05-10T12:15:40.783Z,28.26
2023-05-10T12:18:09.024Z,27.59
2023-05-10T12:20:36.619Z,27.70
2023-05-10T12:23:05.252Z,27.65
2023-05-10T12:25:33.590Z,28.29
2023-05-10T12:28:05.724Z,29.04
2023-05-10T12:30:34.920Z,28.20
2023-05-10T12:33:03.923Z,27.39
2023-05-10T12:35:32.084Z,26.80
2023-05-10T12:37:59.691Z,26.76
2023-05-10T12:40:26.882Z,27.13
2023-05-10T12:42:55.108Z,26.97
2023-05-10T12:45:23.754Z,27.15
2023-05-10T12:47:50.873Z,27.63
2023-05-10T12:50:18.145Z,28.14
2023-05-10T12:52:45.718Z,27.17
2023-05-10T12:55:14.619Z,27.51
2023-05-10T12:57:41.883Z,27.38
2023-05-10T13:00:10.128Z,27.82
2023-05-10T13:02:39.028Z,26.95
2023-05-10T13:05:07.323Z,26.97
2023-05-10T13:07:34.551Z,27.92
2023-05-10T13:10:01.997Z,27.77
2023-05-10T13:12:29.883Z,27.27
2023-05-10T13:14:57.220Z,27.02
2023-05-10T13:17:25.507Z,27.82
2023-05-10T13:19:54.281Z,27.88
2023-05-10T13:22:32.571Z,26.99
2023-05-10T13:25:07.197Z,27.16
2023-05-10T13:27:34.443Z,27.18
2023-05-10T13:30:02.345Z,26.73
2023-05-10T13:32:30.057Z,27.82
2023-05-10T13:34:58.907Z,27.03
2023-05-10T13:37:26.189Z,28.02
2023-05-10T13:39:53.423Z,28.81
2023-05-10T13:42:23.356Z,29.83
2023-05-10T13:44:50.684Z,29.24
2023-05-10T13:47:17.757Z,29.30
2023-05-10T13:49:45.385Z,27.78
2023-05-10T13:52:14.280Z,26.22
2023-05-10T13:54:41.963Z,25.45
2023-05-10T13:57:09.284Z,25.74
2023-05-10T13:59:38.566Z,25.47
2023-05-10T14:02:05.915Z,25.01
2023-05-10T14:04:33.516Z,24.87
2023-05-10T14:07:00.736Z,24.89
2023-05-10T14:09:30.346Z,24.47
2023-05-10T14:11:57.616Z,24.45
2023-05-10T14:14:25.097Z,23.96
2023-05-10T14:16:52.162Z,24.07
2023-05-10T14:19:19.542Z,23.80
2023-05-10T14:21:46.565Z,24.12
2023-05-10T14:24:13.826Z,24.26
2023-05-10T14:26:42.207Z,24.04
2023-05-10T14:29:11.500Z,23.77
2023-05-10T14:31:39.750Z,23.59
2023-05-10T14:34:07.027Z,23.67
2023-05-10T14:36:34.213Z,24.51
2023-05-10T14:39:01.496Z,24.72
2023-05-10T14:41:28.920Z,25.03
2023-05-10T14:43:57.387Z,24.70
2023-05-10T14:46:24.689Z,24.49
2023-05-10T14:48:51.772Z,24.69
2023-05-10T14:51:18.952Z,24.36
2023-05-10T14:53:48.487Z,24.56
2023-05-10T14:56:16.054Z,25.04
2023-05-10T14:58:43.230Z,24.79
2023-05-10T15:01:12.040Z,24.78
2023-05-10T15:03:39.965Z,25.10
2023-05-10T15:06:09.393Z,25.66
2023-05-10T15:08:37.898Z,25.19
2023-05-10T15:11:05.293Z,24.45
2023-05-10T15:13:32.280Z,23.58
2023-05-10T15:15:59.696Z,23.39
2023-05-10T15:18:28.529Z,23.66
2023-05-10T15:20:55.788Z,23.76
2023-05-10T15:23:23.295Z,23.85
2023-05-10T15:25:50.314Z,23.90
2023-05-10T15:28:17.698Z,23.62
2023-05-10T15:30:44.715Z,23.50
2023-05-10T15:33:11.834Z,23.22
2023-05-10T15:35:40.645Z,23.42
2023-05-10T15:38:07.882Z,23.63
2023-05-10T15:40:36.276Z,23.47
2023-05-10T15:43:03.471Z,23.46
2023-05-10T15:45:31.208Z,23.40
2023-05-10T15:47:59.601Z,23.04
2023-05-10T15:50:27.150Z,22.75
2023-05-10T15:52:56.931Z,22.52
2023-05-10T15:55:24.158Z,22.48
2023-05-10T15:57:52.543Z,22.45
2023-05-10T16:00:20.906Z,22.33
2023-05-10T16:02:48.312Z,22.51
2023-05-10T16:05:15.573Z,22.54
2023-05-10T16:07:43.138Z,22.34
2023-05-10T16:10:12.620Z,22.11
2023-05-10T16:12:40.389Z,21.96
2023-05-10T16:15:09.550Z,22.13
2023-05-10T16:17:37.390Z,22.27
2023-05-10T16:20:06.961Z,22.14
2023-05-10T16:22:35.738Z,21.94
2023-05-10T16:25:03.044Z,21.84
2023-05-10T16:29:53.377Z,21.46
2023-05-10T16:32:20.607Z,21.50
2023-05-10T16:34:47.981Z,21.48
2023-05-10T16:37:15.209Z,21.27
2023-05-10T16:39:42.687Z,21.15
2023-05-10T16:42:09.926Z,20.98
2023-05-10T16:44:37.395Z,20.71
2023-05-10T16:47:06.486Z,20.52
2023-05-10T16:49:35.205Z,20.52
2023-05-10T16:52:02.447Z,20.48
2023-05-10T16:54:30.109Z,20.34
2023-05-10T16:56:57.372Z,20.05
2023-05-10T16:59:25.925Z,19.93
2023-05-10T17:01:53.444Z,19.77
2023-05-10T17:04:21.997Z,19.51
2023-05-10T17:06:49.237Z,19.53
2023-05-10T17:09:16.440Z,19.29
2023-05-10T17:11:43.641Z,19.16
2023-05-10T17:14:11.971Z,19.11
2023-05-10T17:16:39.329Z,19.25
2023-05-10T17:19:06.634Z,19.03
2023-05-10T17:21:35.331Z,18.79
2023-05-10T17:24:02.825Z,18.72
2023-05-10T17:26:30.167Z,18.66
2023-05-10T17:28:57.799Z,18.58
2023-05-10T17:31:25.078Z,18.54
2023-05-10T17:33:52.430Z,18.50
2023-05-10T17:36:19.666Z,18.45
2023-05-10T17:38:48.238Z,18.40
2023-05-10T17:41:15.442Z,18.34
2023-05-10T17:43:42.767Z,18.27
2023-05-10T17:46:10.388Z,18.21
2023-05-10T17:48:37.637Z,18.16
2023-05-10T17:51:05.100Z,18.06
2023-05-10T17:53:32.408Z,18.02
2023-05-10T17:56:01.082Z,17.99
2023-05-10T17:58:28.453Z,17.93
2023-05-10T18:00:56.138Z,17.92
2023-05-10T18:03:23.680Z,17.87
2023-05-10T18:05:51.292Z,17.86
2023-05-10T18:08:18.800Z,17.81
2023-05-10T18:10:46.004Z,17.74
2023-05-10T18:13:14.646Z,17.67
2023-05-10T18:15:41.838Z,17.67
2023-05-10T18:18:09.130Z,17.69
2023-05-10T18:20:36.583Z,17.56
2023-05-10T18:23:03.757Z,17.50
2023-05-10T18:25:31.366Z,17.43
2023-05-10T18:28:01.978Z,17.48
2023-05-10T18:30:31.671Z,17.35
2023-05-10T18:32:58.994Z,17.30
2023-05-10T18:35:27.565Z,17.32
2023-05-10T18:37:54.829Z,17.42
2023-05-10T18:40:22.087Z,17.29
2023-05-10T18:42:49.302Z,17.29
2023-05-10T18:45:16.847Z,17.27
2023-05-10T18:47:45.697Z,17.54
2023-05-10T18:50:12.909Z,17.24
2023-05-10T18:52:40.130Z,17.10
2023-05-10T18:55:08.251Z,16.84
2023-05-10T18:57:35.500Z,16.85
2023-05-10T19:00:02.781Z,16.81
2023-05-10T19:02:30.368Z,16.68
2023-05-10T19:04:59.093Z,16.63
2023-05-10T19:07:26.298Z,16.45
2023-05-10T19:09:53.649Z,16.36
2023-05-10T19:12:21.195Z,16.27
2023-05-10T19:14:48.436Z,16.51
2023-05-10T19:17:15.993Z,16.41
2023-05-10T19:19:43.560Z,16.23
2023-05-10T19:22:12.627Z,16.10
2023-05-10T19:24:39.854Z,16.05
2023-05-10T19:27:07.167Z,15.94
2023-05-10T19:29:34.540Z,16.15
2023-05-10T19:32:01.869Z,15.99
2023-05-10T19:34:29.190Z,15.88
2023-05-10T19:36:58.670Z,15.79
2023-05-10T19:39:28.120Z,15.64
2023-05-10T19:41:55.889Z,15.74
2023-05-10T19:44:24.650Z,15.60
2023-05-10T19:46:52.877Z,15.43
2023-05-10T19:49:20.614Z,15.44
2023-05-10T19:51:48.134Z,15.34
2023-05-10T19:54:15.364Z,15.26
2023-05-10T19:56:43.986Z,15.24
2023-05-10T19:59:11.260Z,15.17
2023-05-10T20:01:38.580Z,15.07
2023-05-10T20:04:07.398Z,15.11
2023-05-10T20:06:34.650Z,15.15
2023-05-10T20:09:01.839Z,15.00
2023-05-10T20:11:29.104Z,14.79
2023-05-10T20:13:57.729Z,14.72
2023-05-10T20:16:26.771Z,14.81
2023-05-10T20:18:54.502Z,14.65
2023-05-10T20:21:21.889Z,14.53
2023-05-10T20:23:49.650Z,14.50
2023-05-10T20:26:16.857Z,14.39
2023-05-10T20:28:44.087Z,14.32
2023-05-10T20:31:12.970Z,14.31
2023-05-10T20:33:40.210Z,14.42
2023-05-10T20:36:07.530Z,14.37
2023-05-10T20:38:34.807Z,14.28
2023-05-10T20:41:02.083Z,14.15
2023-05-10T20:43:29.575Z,14.10
2023-05-10T20:45:56.834Z,14.03
2023-05-10T20:48:25.485Z,13.93
2023-05-10T20:50:52.726Z,13.76
2023-05-10T20:53:20.017Z,13.67
2023-05-10T20:55:47.241Z,13.71
2023-05-10T20:58:14.680Z,13.58
2023-05-10T21:00:42.189Z,13.51
2023-05-10T21:03:09.438Z,13.47
2023-05-10T21:05:38.066Z,13.67
2023-05-10T21:08:06.465Z,13.66
2023-05-10T21:10:33.713Z,13.57
2023-05-10T21:13:00.929Z,13.59
2023-05-10T21:15:28.138Z,13.61
2023-05-10T21:17:55.444Z,13.62
2023-05-10T21:20:22.723Z,13.56
2023-05-10T21:22:51.317Z,13.61
2023-05-10T21:25:18.940Z,13.59
2023-05-10T21:27:46.145Z,13.65
2023-05-10T21:30:13.663Z,13.50
2023-05-10T21:32:41.237Z,13.29
2023-05-10T21:35:09.141Z,13.19
2023-05-10T21:37:36.191Z,13.32
2023-05-10T21:40:05.747Z,13.32
2023-05-10T21:42:32.972Z,13.33
2023-05-10T21:45:00.189Z,13.19
2023-05-10T21:47:27.747Z,13.11
2023-05-10T21:49:55.263Z,13.08
2023-05-10T21:52:22.741Z,13.13
2023-05-10T21:54:50.018Z,13.15
2023-05-10T21:57:18.655Z,12.98
2023-05-10T21:59:45.846Z,12.89
2023-05-10T22:02:14.097Z,12.90
2023-05-10T22:04:41.616Z,13.03
2023-05-10T22:07:09.427Z,13.01
2023-05-10T22:09:36.670Z,12.84
2023-05-10T22:12:04.227Z,12.63
2023-05-10T22:14:34.071Z,12.69
2023-05-10T22:17:01.433Z,12.64
2023-05-10T22:19:28.714Z,12.77
2023-05-10T22:21:55.922Z,12.72
2023-05-10T22:24:23.475Z,12.54
2023-05-10T22:26:53.369Z,12.43
2023-05-10T22:29:21.993Z,12.47
2023-05-10T22:31:54.192Z,12.38
2023-05-10T22:34:21.740Z,12.40
2023-05-10T22:36:48.954Z,12.36
2023-05-10T22:39:16.862Z,12.36
2023-05-10T22:41:44.057Z,12.31
2023-05-10T22:44:12.407Z,12.38
2023-05-10T22:46:39.730Z,12.32
2023-05-10T22:49:09.591Z,12.17
2023-05-10T22:51:36.992Z,12.21
2023-05-10T22:54:04.347Z,12.09
2023-05-10T22:56:32.942Z,12.30
2023-05-10T22:59:00.267Z,12.16
2023-05-10T23:01:27.582Z,12.06
2023-05-10T23:03:55.855Z,11.89
2023-05-10T23:06:24.480Z,11.95
2023-05-10T23:08:51.797Z,11.93
2023-05-10T23:11:21.560Z,12.03
2023-05-10T23:13:48.784Z,12.11
2023-05-10T23:16:16.357Z,12.08
2023-05-10T23:18:43.671Z,12.02
2023-05-10T23:21:11.223Z,11.85
2023-05-10T23:23:40.370Z,12.02
2023-05-10T23:26:07.622Z,11.96
2023-05-10T23:28:34.925Z,11.91
2023-05-10T23:31:02.180Z,11.94
2023-05-10T23:33:29.614Z,11.81
2023-05-10T23:35:56.849Z,11.90
2023-05-10T23:38:24.126Z,11.86
2023-05-10T23:40:52.696Z,11.80
2023-05-10T23:43:19.871Z,12.05
2023-05-10T23:45:53.022Z,12.28
2023-05-10T23:48:20.654Z,11.77
2023-05-10T23:50:50.549Z,11.69
2023-05-10T23:53:17.844Z,11.75
2023-05-10T23:55:45.510Z,11.78
2023-05-10T23:58:15.465Z,11.60
